sensor_id;sensor_type;location;lat;lon;timestamp;P1;durP1;ratioP1;P2;durP2;ratioP2
41275;SDS011;27010;47.718;12.912;2022-12-18T00:00:22;11.07;;;5.47;;
41275;SDS011;27010;47.718;12.912;2022-12-18T00:03:24;9.20;;;4.93;;
41275;SDS011;27010;47.718;12.912;2022-12-18T00:06:28;13.40;;;6.47;;
41275;SDS011;27010;47.718;12.912;2022-12-18T00:09:30;11.57;;;5.30;;
41275;SDS011;27010;47.718;12.912;2022-12-18T00:12:40;13.20;;;6.67;;
41275;SDS011;27010;47.718;12.912;2022-12-18T00:15:42;14.20;;;5.80;;
41275;SDS011;27010;47.718;12.912;2022-12-18T00:18:44;10.17;;;5.53;;
41275;SDS011;27010;47.718;12.912;2022-12-18T00:21:46;9.10;;;4.80;;
41275;SDS011;27010;47.718;12.912;2022-12-18T00:24:50;11.50;;;5.70;;
41275;SDS011;27010;47.718;12.912;2022-12-18T00:27:52;15.10;;;6.60;;
41275;SDS011;27010;47.718;12.912;2022-12-18T00:31:07;11.37;;;5.13;;
41275;SDS011;27010;47.718;12.912;2022-12-18T00:34:12;9.13;;;5.03;;
41275;SDS011;27010;47.718;12.912;2022-12-18T00:37:14;9.43;;;5.57;;
41275;SDS011;27010;47.718;12.912;2022-12-18T00:40:20;10.03;;;4.80;;
41275;SDS011;27010;47.718;12.912;2022-12-18T00:43:23;12.40;;;5.90;;
41275;SDS011;27010;47.718;12.912;2022-12-18T00:46:25;9.03;;;5.03;;
41275;SDS011;27010;47.718;12.912;2022-12-18T00:49:27;12.10;;;5.10;;
41275;SDS011;27010;47.718;12.912;2022-12-18T00:52:29;8.83;;;4.00;;
41275;SDS011;27010;47.718;12.912;2022-12-18T00:55:31;8.63;;;4.27;;
41275;SDS011;27010;47.718;12.912;2022-12-18T00:58:33;10.03;;;5.23;;
41275;SDS011;27010;47.718;12.912;2022-12-18T01:01:37;8.40;;;4.73;;
41275;SDS011;27010;47.718;12.912;2022-12-18T01:04:39;8.93;;;4.37;;
41275;SDS011;27010;47.718;12.912;2022-12-18T01:07:41;10.77;;;4.63;;
41275;SDS011;27010;47.718;12.912;2022-12-18T01:10:43;10.40;;;4.93;;
41275;SDS011;27010;47.718;12.912;2022-12-18T01:13:45;9.00;;;4.10;;
41275;SDS011;27010;47.718;12.912;2022-12-18T01:16:47;8.47;;;4.40;;
41275;SDS011;27010;47.718;12.912;2022-12-18T01:19:49;11.03;;;5.40;;
41275;SDS011;27010;47.718;12.912;2022-12-18T01:22:51;10.23;;;4.57;;
41275;SDS011;27010;47.718;12.912;2022-12-18T01:25:53;7.70;;;3.80;;
41275;SDS011;27010;47.718;12.912;2022-12-18T01:28:55;8.40;;;4.10;;
41275;SDS011;27010;47.718;12.912;2022-12-18T01:31:59;7.53;;;4.30;;
41275;SDS011;27010;47.718;12.912;2022-12-18T01:35:01;7.83;;;4.77;;
41275;SDS011;27010;47.718;12.912;2022-12-18T01:38:03;6.47;;;3.90;;
41275;SDS011;27010;47.718;12.912;2022-12-18T01:41:05;9.23;;;4.57;;
41275;SDS011;27010;47.718;12.912;2022-12-18T01:44:46;10.23;;;4.63;;
41275;SDS011;27010;47.718;12.912;2022-12-18T01:47:48;6.93;;;4.20;;
41275;SDS011;27010;47.718;12.912;2022-12-18T01:50:55;9.03;;;4.57;;
41275;SDS011;27010;47.718;12.912;2022-12-18T01:53:57;9.07;;;4.47;;
41275;SDS011;27010;47.718;12.912;2022-12-18T01:56:59;6.60;;;4.03;;
41275;SDS011;27010;47.718;12.912;2022-12-18T02:00:07;8.50;;;4.23;;
41275;SDS011;27010;47.718;12.912;2022-12-18T02:03:14;9.10;;;4.53;;
41275;SDS011;27010;47.718;12.912;2022-12-18T02:09:23;7.47;;;3.77;;
41275;SDS011;27010;47.718;12.912;2022-12-18T02:16:01;6.63;;;3.60;;
41275;SDS011;27010;47.718;12.912;2022-12-18T02:25:53;10.53;;;4.30;;
41275;SDS011;27010;47.718;12.912;2022-12-18T02:29:20;8.23;;;3.93;;
41275;SDS011;27010;47.718;12.912;2022-12-18T02:32:26;9.10;;;3.83;;
41275;SDS011;27010;47.718;12.912;2022-12-18T02:35:30;5.87;;;3.00;;
41275;SDS011;27010;47.718;12.912;2022-12-18T02:38:33;8.23;;;4.30;;
41275;SDS011;27010;47.718;12.912;2022-12-18T02:41:35;5.23;;;3.23;;
41275;SDS011;27010;47.718;12.912;2022-12-18T02:44:44;6.77;;;3.33;;
41275;SDS011;27010;47.718;12.912;2022-12-18T02:47:48;8.03;;;3.93;;
41275;SDS011;27010;47.718;12.912;2022-12-18T02:51:16;6.27;;;4.20;;
41275;SDS011;27010;47.718;12.912;2022-12-18T02:57:47;8.17;;;4.47;;
41275;SDS011;27010;47.718;12.912;2022-12-18T03:01:05;6.83;;;4.00;;
41275;SDS011;27010;47.718;12.912;2022-12-18T03:04:18;6.73;;;3.50;;
41275;SDS011;27010;47.718;12.912;2022-12-18T03:07:33;7.87;;;4.10;;
41275;SDS011;27010;47.718;12.912;2022-12-18T03:10:39;8.63;;;3.97;;
41275;SDS011;27010;47.718;12.912;2022-12-18T03:13:45;8.50;;;3.90;;
41275;SDS011;27010;47.718;12.912;2022-12-18T03:16:50;9.00;;;4.00;;
41275;SDS011;27010;47.718;12.912;2022-12-18T03:19:56;9.90;;;4.13;;
41275;SDS011;27010;47.718;12.912;2022-12-18T03:23:04;6.57;;;3.47;;
41275;SDS011;27010;47.718;12.912;2022-12-18T03:26:12;5.97;;;3.00;;
41275;SDS011;27010;47.718;12.912;2022-12-18T03:29:19;7.00;;;3.60;;
41275;SDS011;27010;47.718;12.912;2022-12-18T03:32:25;5.77;;;3.10;;
41275;SDS011;27010;47.718;12.912;2022-12-18T03:35:31;5.37;;;3.10;;
41275;SDS011;27010;47.718;12.912;2022-12-18T03:38:36;8.50;;;3.90;;
41275;SDS011;27010;47.718;12.912;2022-12-18T03:41:51;5.73;;;2.90;;
41275;SDS011;27010;47.718;12.912;2022-12-18T03:45:13;5.70;;;2.90;;
41275;SDS011;27010;47.718;12.912;2022-12-18T03:48:29;4.53;;;2.60;;
41275;SDS011;27010;47.718;12.912;2022-12-18T03:54:41;7.17;;;3.33;;
41275;SDS011;27010;47.718;12.912;2022-12-18T03:57:44;5.77;;;2.80;;
41275;SDS011;27010;47.718;12.912;2022-12-18T04:00:46;6.77;;;2.97;;
41275;SDS011;27010;47.718;12.912;2022-12-18T04:03:49;5.27;;;3.10;;
41275;SDS011;27010;47.718;12.912;2022-12-18T04:06:53;6.20;;;2.63;;
41275;SDS011;27010;47.718;12.912;2022-12-18T04:09:55;7.83;;;3.70;;
41275;SDS011;27010;47.718;12.912;2022-12-18T04:12:58;6.57;;;3.00;;
41275;SDS011;27010;47.718;12.912;2022-12-18T04:16:00;7.00;;;3.23;;
41275;SDS011;27010;47.718;12.912;2022-12-18T04:19:03;7.13;;;3.47;;
41275;SDS011;27010;47.718;12.912;2022-12-18T04:22:06;7.17;;;3.43;;
41275;SDS011;27010;47.718;12.912;2022-12-18T04:25:10;4.10;;;2.17;;
41275;SDS011;27010;47.718;12.912;2022-12-18T04:28:12;3.47;;;1.93;;
41275;SDS011;27010;47.718;12.912;2022-12-18T04:31:13;3.93;;;2.53;;
41275;SDS011;27010;47.718;12.912;2022-12-18T04:34:15;2.17;;;1.33;;
41275;SDS011;27010;47.718;12.912;2022-12-18T04:37:17;6.80;;;3.63;;
41275;SDS011;27010;47.718;12.912;2022-12-18T04:40:20;4.37;;;2.70;;
41275;SDS011;27010;47.718;12.912;2022-12-18T04:43:22;7.20;;;3.43;;
41275;SDS011;27010;47.718;12.912;2022-12-18T04:46:24;6.03;;;3.23;;
41275;SDS011;27010;47.718;12.912;2022-12-18T04:49:26;5.90;;;3.10;;
41275;SDS011;27010;47.718;12.912;2022-12-18T04:52:28;7.07;;;3.20;;
41275;SDS011;27010;47.718;12.912;2022-12-18T04:55:30;6.33;;;2.67;;
41275;SDS011;27010;47.718;12.912;2022-12-18T04:58:32;3.67;;;2.43;;
41275;SDS011;27010;47.718;12.912;2022-12-18T05:01:34;7.63;;;3.37;;
41275;SDS011;27010;47.718;12.912;2022-12-18T05:04:36;6.93;;;3.20;;
41275;SDS011;27010;47.718;12.912;2022-12-18T05:07:38;8.63;;;3.20;;
41275;SDS011;27010;47.718;12.912;2022-12-18T05:10:40;5.83;;;2.80;;
41275;SDS011;27010;47.718;12.912;2022-12-18T05:13:42;4.20;;;2.67;;
41275;SDS011;27010;47.718;12.912;2022-12-18T05:16:46;5.50;;;2.80;;
41275;SDS011;27010;47.718;12.912;2022-12-18T05:19:48;5.07;;;2.70;;
41275;SDS011;27010;47.718;12.912;2022-12-18T05:22:50;5.33;;;3.00;;
41275;SDS011;27010;47.718;12.912;2022-12-18T05:25:56;6.53;;;3.07;;
41275;SDS011;27010;47.718;12.912;2022-12-18T05:29:00;4.00;;;2.77;;
41275;SDS011;27010;47.718;12.912;2022-12-18T05:32:02;5.83;;;3.20;;
41275;SDS011;27010;47.718;12.912;2022-12-18T05:35:04;5.60;;;2.10;;
41275;SDS011;27010;47.718;12.912;2022-12-18T05:38:07;5.73;;;2.77;;
41275;SDS011;27010;47.718;12.912;2022-12-18T05:41:09;3.57;;;1.97;;
41275;SDS011;27010;47.718;12.912;2022-12-18T05:44:11;7.13;;;2.40;;
41275;SDS011;27010;47.718;12.912;2022-12-18T05:47:13;4.17;;;2.40;;
41275;SDS011;27010;47.718;12.912;2022-12-18T05:50:15;4.00;;;2.30;;
41275;SDS011;27010;47.718;12.912;2022-12-18T05:53:18;3.97;;;2.03;;
41275;SDS011;27010;47.718;12.912;2022-12-18T05:56:21;5.03;;;2.60;;
41275;SDS011;27010;47.718;12.912;2022-12-18T05:59:24;3.53;;;1.87;;
41275;SDS011;27010;47.718;12.912;2022-12-18T06:02:27;3.57;;;2.13;;
41275;SDS011;27010;47.718;12.912;2022-12-18T06:05:29;3.03;;;2.00;;
41275;SDS011;27010;47.718;12.912;2022-12-18T06:08:37;4.53;;;2.43;;
41275;SDS011;27010;47.718;12.912;2022-12-18T06:11:46;6.57;;;2.67;;
41275;SDS011;27010;47.718;12.912;2022-12-18T06:14:48;3.53;;;2.33;;
41275;SDS011;27010;47.718;12.912;2022-12-18T06:17:50;2.77;;;2.00;;
41275;SDS011;27010;47.718;12.912;2022-12-18T06:20:55;5.17;;;2.27;;
41275;SDS011;27010;47.718;12.912;2022-12-18T06:23:58;2.17;;;1.30;;
41275;SDS011;27010;47.718;12.912;2022-12-18T06:27:01;4.10;;;2.30;;
41275;SDS011;27010;47.718;12.912;2022-12-18T06:30:04;3.03;;;1.83;;
41275;SDS011;27010;47.718;12.912;2022-12-18T06:33:06;5.73;;;2.47;;
41275;SDS011;27010;47.718;12.912;2022-12-18T06:36:10;3.77;;;2.10;;
41275;SDS011;27010;47.718;12.912;2022-12-18T06:39:13;5.50;;;2.60;;
41275;SDS011;27010;47.718;12.912;2022-12-18T06:42:15;5.30;;;3.33;;
41275;SDS011;27010;47.718;12.912;2022-12-18T06:45:18;6.93;;;3.00;;
41275;SDS011;27010;47.718;12.912;2022-12-18T06:48:20;5.37;;;2.97;;
41275;SDS011;27010;47.718;12.912;2022-12-18T06:51:23;7.67;;;2.97;;
41275;SDS011;27010;47.718;12.912;2022-12-18T06:54:25;5.23;;;2.33;;
41275;SDS011;27010;47.718;12.912;2022-12-18T06:57:27;5.77;;;2.50;;
41275;SDS011;27010;47.718;12.912;2022-12-18T07:00:29;4.47;;;2.17;;
41275;SDS011;27010;47.718;12.912;2022-12-18T07:03:31;3.90;;;2.33;;
41275;SDS011;27010;47.718;12.912;2022-12-18T07:06:34;2.43;;;1.90;;
41275;SDS011;27010;47.718;12.912;2022-12-18T07:09:36;3.03;;;2.00;;
41275;SDS011;27010;47.718;12.912;2022-12-18T07:12:37;4.50;;;2.03;;
41275;SDS011;27010;47.718;12.912;2022-12-18T07:15:40;2.87;;;1.90;;
41275;SDS011;27010;47.718;12.912;2022-12-18T07:18:43;3.20;;;1.93;;
41275;SDS011;27010;47.718;12.912;2022-12-18T07:21:46;3.97;;;2.17;;
41275;SDS011;27010;47.718;12.912;2022-12-18T07:24:48;3.63;;;1.83;;
41275;SDS011;27010;47.718;12.912;2022-12-18T07:27:50;3.17;;;2.10;;
41275;SDS011;27010;47.718;12.912;2022-12-18T07:30:52;4.70;;;2.07;;
41275;SDS011;27010;47.718;12.912;2022-12-18T07:33:55;3.77;;;2.37;;
41275;SDS011;27010;47.718;12.912;2022-12-18T07:36:57;5.23;;;2.27;;
41275;SDS011;27010;47.718;12.912;2022-12-18T07:39:59;5.97;;;2.30;;
41275;SDS011;27010;47.718;12.912;2022-12-18T07:43:01;5.50;;;3.07;;
41275;SDS011;27010;47.718;12.912;2022-12-18T07:46:03;4.47;;;2.53;;
41275;SDS011;27010;47.718;12.912;2022-12-18T07:49:06;4.90;;;2.73;;
41275;SDS011;27010;47.718;12.912;2022-12-18T07:52:08;4.87;;;1.90;;
41275;SDS011;27010;47.718;12.912;2022-12-18T07:55:10;5.27;;;2.20;;
41275;SDS011;27010;47.718;12.912;2022-12-18T07:58:13;2.57;;;1.67;;
41275;SDS011;27010;47.718;12.912;2022-12-18T08:01:15;4.40;;;2.10;;
41275;SDS011;27010;47.718;12.912;2022-12-18T08:04:17;4.33;;;2.50;;
41275;SDS011;27010;47.718;12.912;2022-12-18T08:07:19;3.53;;;2.23;;
41275;SDS011;27010;47.718;12.912;2022-12-18T08:10:21;3.77;;;2.17;;
41275;SDS011;27010;47.718;12.912;2022-12-18T08:13:23;3.97;;;2.50;;
41275;SDS011;27010;47.718;12.912;2022-12-18T08:16:26;4.33;;;2.20;;
41275;SDS011;27010;47.718;12.912;2022-12-18T08:19:28;4.87;;;2.33;;
41275;SDS011;27010;47.718;12.912;2022-12-18T08:22:30;3.93;;;2.00;;
41275;SDS011;27010;47.718;12.912;2022-12-18T08:25:32;8.67;;;2.43;;
41275;SDS011;27010;47.718;12.912;2022-12-18T08:28:35;3.17;;;1.73;;
41275;SDS011;27010;47.718;12.912;2022-12-18T08:31:37;2.83;;;1.60;;
41275;SDS011;27010;47.718;12.912;2022-12-18T08:34:39;3.57;;;2.17;;
41275;SDS011;27010;47.718;12.912;2022-12-18T08:37:41;3.20;;;2.30;;
41275;SDS011;27010;47.718;12.912;2022-12-18T08:40:44;3.17;;;1.70;;
41275;SDS011;27010;47.718;12.912;2022-12-18T08:43:46;4.53;;;2.20;;
41275;SDS011;27010;47.718;12.912;2022-12-18T08:47:07;5.67;;;2.20;;
41275;SDS011;27010;47.718;12.912;2022-12-18T08:50:10;6.43;;;2.13;;
41275;SDS011;27010;47.718;12.912;2022-12-18T08:53:13;4.67;;;2.33;;
41275;SDS011;27010;47.718;12.912;2022-12-18T08:56:16;2.77;;;1.60;;
41275;SDS011;27010;47.718;12.912;2022-12-18T08:59:18;4.00;;;2.30;;
41275;SDS011;27010;47.718;12.912;2022-12-18T09:02:21;3.43;;;2.00;;
41275;SDS011;27010;47.718;12.912;2022-12-18T09:05:23;4.50;;;2.30;;
41275;SDS011;27010;47.718;12.912;2022-12-18T09:08:25;4.07;;;2.13;;
41275;SDS011;27010;47.718;12.912;2022-12-18T09:11:28;3.83;;;1.70;;
41275;SDS011;27010;47.718;12.912;2022-12-18T09:14:31;3.43;;;2.00;;
41275;SDS011;27010;47.718;12.912;2022-12-18T09:17:33;3.23;;;2.10;;
41275;SDS011;27010;47.718;12.912;2022-12-18T09:20:36;2.83;;;2.03;;
41275;SDS011;27010;47.718;12.912;2022-12-18T09:23:38;4.67;;;2.17;;
41275;SDS011;27010;47.718;12.912;2022-12-18T09:26:40;4.93;;;2.33;;
41275;SDS011;27010;47.718;12.912;2022-12-18T09:29:47;4.63;;;2.63;;
41275;SDS011;27010;47.718;12.912;2022-12-18T09:32:49;4.17;;;2.80;;
41275;SDS011;27010;47.718;12.912;2022-12-18T09:35:51;5.70;;;2.53;;
41275;SDS011;27010;47.718;12.912;2022-12-18T09:38:54;4.77;;;2.87;;
41275;SDS011;27010;47.718;12.912;2022-12-18T09:41:57;4.73;;;2.60;;
41275;SDS011;27010;47.718;12.912;2022-12-18T09:44:59;8.13;;;4.67;;
41275;SDS011;27010;47.718;12.912;2022-12-18T09:48:02;12.10;;;4.83;;
41275;SDS011;27010;47.718;12.912;2022-12-18T09:51:11;11.70;;;6.37;;
41275;SDS011;27010;47.718;12.912;2022-12-18T09:54:16;15.70;;;7.90;;
41275;SDS011;27010;47.718;12.912;2022-12-18T09:57:23;17.03;;;9.50;;
41275;SDS011;27010;47.718;12.912;2022-12-18T10:00:27;24.23;;;10.83;;
41275;SDS011;27010;47.718;12.912;2022-12-18T10:03:29;20.23;;;9.70;;
41275;SDS011;27010;47.718;12.912;2022-12-18T10:06:49;35.50;;;15.00;;
41275;SDS011;27010;47.718;12.912;2022-12-18T10:09:55;26.83;;;14.50;;
41275;SDS011;27010;47.718;12.912;2022-12-18T10:13:18;25.70;;;12.57;;
41275;SDS011;27010;47.718;12.912;2022-12-18T10:26:17;26.43;;;13.13;;
41275;SDS011;27010;47.718;12.912;2022-12-18T10:29:19;31.57;;;16.10;;
41275;SDS011;27010;47.718;12.912;2022-12-18T10:32:26;32.17;;;13.53;;
41275;SDS011;27010;47.718;12.912;2022-12-18T10:35:29;31.27;;;15.03;;
41275;SDS011;27010;47.718;12.912;2022-12-18T10:38:32;28.50;;;14.43;;
41275;SDS011;27010;47.718;12.912;2022-12-18T10:41:34;28.53;;;14.80;;
41275;SDS011;27010;47.718;12.912;2022-12-18T10:44:36;29.63;;;14.30;;
41275;SDS011;27010;47.718;12.912;2022-12-18T10:47:46;31.17;;;14.47;;
41275;SDS011;27010;47.718;12.912;2022-12-18T10:50:51;29.57;;;14.80;;
41275;SDS011;27010;47.718;12.912;2022-12-18T10:54:17;29.17;;;13.97;;
41275;SDS011;27010;47.718;12.912;2022-12-18T11:00:28;24.83;;;12.90;;
41275;SDS011;27010;47.718;12.912;2022-12-18T11:03:43;19.67;;;9.97;;
41275;SDS011;27010;47.718;12.912;2022-12-18T11:07:07;7.60;;;4.37;;
41275;SDS011;27010;47.718;12.912;2022-12-18T11:10:15;4.47;;;2.30;;
41275;SDS011;27010;47.718;12.912;2022-12-18T11:13:21;3.57;;;2.30;;
41275;SDS011;27010;47.718;12.912;2022-12-18T11:16:25;2.77;;;1.67;;
41275;SDS011;27010;47.718;12.912;2022-12-18T11:19:40;1.97;;;1.60;;
41275;SDS011;27010;47.718;12.912;2022-12-18T11:22:43;2.73;;;1.90;;
41275;SDS011;27010;47.718;12.912;2022-12-18T11:25:58;2.53;;;1.80;;
41275;SDS011;27010;47.718;12.912;2022-12-18T11:29:09;1.97;;;1.60;;
41275;SDS011;27010;47.718;12.912;2022-12-18T11:35:18;4.90;;;2.63;;
41275;SDS011;27010;47.718;12.912;2022-12-18T11:38:29;4.83;;;3.10;;
41275;SDS011;27010;47.718;12.912;2022-12-18T11:41:39;5.37;;;3.53;;
41275;SDS011;27010;47.718;12.912;2022-12-18T11:48:23;22.87;;;11.00;;
41275;SDS011;27010;47.718;12.912;2022-12-18T11:51:39;24.60;;;13.77;;
41275;SDS011;27010;47.718;12.912;2022-12-18T11:54:45;25.97;;;13.20;;
41275;SDS011;27010;47.718;12.912;2022-12-18T12:14:41;31.70;;;14.33;;
41275;SDS011;27010;47.718;12.912;2022-12-18T12:21:28;35.20;;;15.67;;
41275;SDS011;27010;47.718;12.912;2022-12-18T12:24:56;27.17;;;13.50;;
41275;SDS011;27010;47.718;12.912;2022-12-18T12:28:09;29.23;;;13.90;;
41275;SDS011;27010;47.718;12.912;2022-12-18T12:35:03;32.07;;;15.07;;
41275;SDS011;27010;47.718;12.912;2022-12-18T12:38:46;64.23;;;26.90;;
41275;SDS011;27010;47.718;12.912;2022-12-18T12:41:53;42.27;;;18.70;;
41275;SDS011;27010;47.718;12.912;2022-12-18T12:45:15;29.47;;;13.47;;
41275;SDS011;27010;47.718;12.912;2022-12-18T12:51:47;21.83;;;10.63;;
41275;SDS011;27010;47.718;12.912;2022-12-18T12:55:04;18.17;;;8.13;;
41275;SDS011;27010;47.718;12.912;2022-12-18T12:58:16;21.13;;;8.20;;
41275;SDS011;27010;47.718;12.912;2022-12-18T13:01:49;18.70;;;6.77;;
41275;SDS011;27010;47.718;12.912;2022-12-18T13:04:59;13.17;;;6.23;;
41275;SDS011;27010;47.718;12.912;2022-12-18T13:08:10;15.63;;;7.30;;
41275;SDS011;27010;47.718;12.912;2022-12-18T13:11:39;18.17;;;7.43;;
41275;SDS011;27010;47.718;12.912;2022-12-18T13:15:23;15.73;;;7.13;;
41275;SDS011;27010;47.718;12.912;2022-12-18T13:18:29;17.17;;;8.73;;
41275;SDS011;27010;47.718;12.912;2022-12-18T13:21:33;16.83;;;7.80;;
41275;SDS011;27010;47.718;12.912;2022-12-18T13:24:35;23.90;;;8.87;;
41275;SDS011;27010;47.718;12.912;2022-12-18T13:43:49;14.63;;;7.63;;
41275;SDS011;27010;47.718;12.912;2022-12-18T13:46:52;17.90;;;8.87;;
41275;SDS011;27010;47.718;12.912;2022-12-18T13:49:55;18.67;;;9.07;;
41275;SDS011;27010;47.718;12.912;2022-12-18T13:52:58;18.43;;;8.77;;
41275;SDS011;27010;47.718;12.912;2022-12-18T13:56:01;19.73;;;10.40;;
41275;SDS011;27010;47.718;12.912;2022-12-18T14:02:14;15.63;;;8.40;;
41275;SDS011;27010;47.718;12.912;2022-12-18T14:05:24;10.37;;;5.77;;
41275;SDS011;27010;47.718;12.912;2022-12-18T14:08:29;10.83;;;5.07;;
41275;SDS011;27010;47.718;12.912;2022-12-18T14:11:35;9.40;;;5.20;;
41275;SDS011;27010;47.718;12.912;2022-12-18T14:14:40;8.83;;;4.50;;
41275;SDS011;27010;47.718;12.912;2022-12-18T14:17:50;10.50;;;5.27;;
41275;SDS011;27010;47.718;12.912;2022-12-18T14:20:54;9.10;;;5.20;;
41275;SDS011;27010;47.718;12.912;2022-12-18T14:24:20;11.37;;;5.00;;
41275;SDS011;27010;47.718;12.912;2022-12-18T14:27:25;8.37;;;4.60;;
41275;SDS011;27010;47.718;12.912;2022-12-18T14:30:31;10.50;;;4.97;;
41275;SDS011;27010;47.718;12.912;2022-12-18T14:33:35;9.00;;;4.43;;
41275;SDS011;27010;47.718;12.912;2022-12-18T14:36:40;7.67;;;3.80;;
41275;SDS011;27010;47.718;12.912;2022-12-18T14:39:55;8.67;;;4.20;;
41275;SDS011;27010;47.718;12.912;2022-12-18T14:42:59;8.07;;;3.60;;
41275;SDS011;27010;47.718;12.912;2022-12-18T14:46:01;8.30;;;4.03;;
41275;SDS011;27010;47.718;12.912;2022-12-18T14:49:20;7.70;;;4.27;;
41275;SDS011;27010;47.718;12.912;2022-12-18T14:52:27;8.03;;;4.17;;
41275;SDS011;27010;47.718;12.912;2022-12-18T14:55:30;7.63;;;4.00;;
41275;SDS011;27010;47.718;12.912;2022-12-18T14:58:33;5.87;;;3.77;;
41275;SDS011;27010;47.718;12.912;2022-12-18T15:01:44;6.90;;;3.60;;
41275;SDS011;27010;47.718;12.912;2022-12-18T15:04:59;10.63;;;4.97;;
41275;SDS011;27010;47.718;12.912;2022-12-18T15:08:28;11.87;;;3.70;;
41275;SDS011;27010;47.718;12.912;2022-12-18T15:14:41;10.47;;;5.70;;
41275;SDS011;27010;47.718;12.912;2022-12-18T15:17:43;12.13;;;6.47;;
41275;SDS011;27010;47.718;12.912;2022-12-18T15:23:51;9.57;;;5.23;;
41275;SDS011;27010;47.718;12.912;2022-12-18T15:26:54;10.60;;;5.30;;
41275;SDS011;27010;47.718;12.912;2022-12-18T15:33:17;14.20;;;7.50;;
41275;SDS011;27010;47.718;12.912;2022-12-18T15:36:26;13.13;;;6.17;;
41275;SDS011;27010;47.718;12.912;2022-12-18T15:39:28;15.90;;;6.80;;
41275;SDS011;27010;47.718;12.912;2022-12-18T15:42:31;10.73;;;5.93;;
41275;SDS011;27010;47.718;12.912;2022-12-18T15:45:51;12.33;;;5.97;;
41275;SDS011;27010;47.718;12.912;2022-12-18T15:48:54;13.50;;;6.00;;
41275;SDS011;27010;47.718;12.912;2022-12-18T15:52:02;10.60;;;6.23;;
41275;SDS011;27010;47.718;12.912;2022-12-18T15:55:05;14.67;;;7.43;;
41275;SDS011;27010;47.718;12.912;2022-12-18T15:58:37;11.73;;;7.13;;
41275;SDS011;27010;47.718;12.912;2022-12-18T16:01:39;10.33;;;5.97;;
41275;SDS011;27010;47.718;12.912;2022-12-18T16:04:43;9.30;;;5.83;;
41275;SDS011;27010;47.718;12.912;2022-12-18T16:07:47;11.37;;;5.87;;
41275;SDS011;27010;47.718;12.912;2022-12-18T16:10:49;7.33;;;4.30;;
41275;SDS011;27010;47.718;12.912;2022-12-18T16:13:51;7.43;;;4.77;;
41275;SDS011;27010;47.718;12.912;2022-12-18T16:17:04;10.97;;;6.03;;
41275;SDS011;27010;47.718;12.912;2022-12-18T16:20:14;10.53;;;5.47;;
41275;SDS011;27010;47.718;12.912;2022-12-18T16:23:18;8.20;;;4.13;;
41275;SDS011;27010;47.718;12.912;2022-12-18T16:26:20;6.53;;;3.87;;
41275;SDS011;27010;47.718;12.912;2022-12-18T16:29:22;5.03;;;2.50;;
41275;SDS011;27010;47.718;12.912;2022-12-18T16:32:28;4.93;;;2.47;;
41275;SDS011;27010;47.718;12.912;2022-12-18T16:35:30;6.57;;;2.67;;
41275;SDS011;27010;47.718;12.912;2022-12-18T16:38:32;6.57;;;2.83;;
41275;SDS011;27010;47.718;12.912;2022-12-18T16:41:34;7.90;;;3.50;;
41275;SDS011;27010;47.718;12.912;2022-12-18T16:44:38;5.30;;;2.70;;
41275;SDS011;27010;47.718;12.912;2022-12-18T16:47:41;4.80;;;3.27;;
41275;SDS011;27010;47.718;12.912;2022-12-18T16:50:43;8.93;;;4.17;;
41275;SDS011;27010;47.718;12.912;2022-12-18T16:53:45;10.17;;;5.97;;
41275;SDS011;27010;47.718;12.912;2022-12-18T16:56:46;12.87;;;7.60;;
41275;SDS011;27010;47.718;12.912;2022-12-18T16:59:51;11.80;;;6.70;;
41275;SDS011;27010;47.718;12.912;2022-12-18T17:02:53;10.20;;;5.13;;
41275;SDS011;27010;47.718;12.912;2022-12-18T17:06:00;6.57;;;3.20;;
41275;SDS011;27010;47.718;12.912;2022-12-18T17:09:05;6.20;;;3.77;;
41275;SDS011;27010;47.718;12.912;2022-12-18T17:12:09;5.00;;;2.63;;
41275;SDS011;27010;47.718;12.912;2022-12-18T17:15:11;2.60;;;1.70;;
41275;SDS011;27010;47.718;12.912;2022-12-18T17:18:15;4.23;;;2.13;;
41275;SDS011;27010;47.718;12.912;2022-12-18T17:21:17;3.67;;;2.37;;
41275;SDS011;27010;47.718;12.912;2022-12-18T17:24:20;2.33;;;1.57;;
41275;SDS011;27010;47.718;12.912;2022-12-18T17:27:22;2.43;;;2.00;;
41275;SDS011;27010;47.718;12.912;2022-12-18T17:30:24;5.53;;;3.43;;
41275;SDS011;27010;47.718;12.912;2022-12-18T17:33:26;4.80;;;2.97;;
41275;SDS011;27010;47.718;12.912;2022-12-18T17:36:28;5.50;;;3.23;;
41275;SDS011;27010;47.718;12.912;2022-12-18T17:39:32;8.03;;;3.23;;
41275;SDS011;27010;47.718;12.912;2022-12-18T17:42:34;15.80;;;7.80;;
41275;SDS011;27010;47.718;12.912;2022-12-18T17:45:37;10.63;;;5.57;;
41275;SDS011;27010;47.718;12.912;2022-12-18T17:48:40;8.17;;;4.63;;
41275;SDS011;27010;47.718;12.912;2022-12-18T17:51:42;10.53;;;5.40;;
41275;SDS011;27010;47.718;12.912;2022-12-18T17:54:44;9.97;;;4.93;;
41275;SDS011;27010;47.718;12.912;2022-12-18T17:57:47;10.50;;;5.03;;
41275;SDS011;27010;47.718;12.912;2022-12-18T18:00:49;8.20;;;4.23;;
41275;SDS011;27010;47.718;12.912;2022-12-18T18:03:52;5.33;;;3.53;;
41275;SDS011;27010;47.718;12.912;2022-12-18T18:06:57;5.87;;;3.30;;
41275;SDS011;27010;47.718;12.912;2022-12-18T18:09:59;3.40;;;2.33;;
41275;SDS011;27010;47.718;12.912;2022-12-18T18:13:02;3.47;;;1.70;;
41275;SDS011;27010;47.718;12.912;2022-12-18T18:16:23;3.40;;;2.03;;
41275;SDS011;27010;47.718;12.912;2022-12-18T18:19:25;3.40;;;2.20;;
41275;SDS011;27010;47.718;12.912;2022-12-18T18:22:27;3.43;;;2.30;;
41275;SDS011;27010;47.718;12.912;2022-12-18T18:25:29;4.37;;;2.90;;
41275;SDS011;27010;47.718;12.912;2022-12-18T18:28:31;4.00;;;2.20;;
41275;SDS011;27010;47.718;12.912;2022-12-18T18:31:34;3.10;;;1.70;;
41275;SDS011;27010;47.718;12.912;2022-12-18T18:34:41;3.87;;;1.90;;
41275;SDS011;27010;47.718;12.912;2022-12-18T18:37:46;4.20;;;2.43;;
41275;SDS011;27010;47.718;12.912;2022-12-18T18:40:57;3.07;;;1.97;;
41275;SDS011;27010;47.718;12.912;2022-12-18T18:44:00;4.40;;;2.20;;
41275;SDS011;27010;47.718;12.912;2022-12-18T18:47:03;3.70;;;1.80;;
41275;SDS011;27010;47.718;12.912;2022-12-18T18:50:12;2.57;;;1.90;;
41275;SDS011;27010;47.718;12.912;2022-12-18T18:53:15;1.87;;;1.20;;
41275;SDS011;27010;47.718;12.912;2022-12-18T18:56:21;1.43;;;1.20;;
41275;SDS011;27010;47.718;12.912;2022-12-18T18:59:44;2.87;;;1.60;;
41275;SDS011;27010;47.718;12.912;2022-12-18T19:02:47;2.30;;;1.40;;
41275;SDS011;27010;47.718;12.912;2022-12-18T19:05:53;1.90;;;1.20;;
41275;SDS011;27010;47.718;12.912;2022-12-18T19:08:56;6.73;;;1.60;;
41275;SDS011;27010;47.718;12.912;2022-12-18T19:11:59;2.77;;;1.70;;
41275;SDS011;27010;47.718;12.912;2022-12-18T19:15:19;1.67;;;1.23;;
41275;SDS011;27010;47.718;12.912;2022-12-18T19:18:23;1.00;;;0.73;;
41275;SDS011;27010;47.718;12.912;2022-12-18T19:21:25;3.30;;;1.77;;
41275;SDS011;27010;47.718;12.912;2022-12-18T19:24:34;17.90;;;6.87;;
41275;SDS011;27010;47.718;12.912;2022-12-18T19:27:36;14.27;;;4.83;;
41275;SDS011;27010;47.718;12.912;2022-12-18T19:30:40;4.20;;;2.43;;
41275;SDS011;27010;47.718;12.912;2022-12-18T19:33:43;5.67;;;2.40;;
41275;SDS011;27010;47.718;12.912;2022-12-18T19:36:47;4.53;;;2.50;;
41275;SDS011;27010;47.718;12.912;2022-12-18T19:39:49;1.50;;;1.27;;
41275;SDS011;27010;47.718;12.912;2022-12-18T19:42:51;3.70;;;2.20;;
41275;SDS011;27010;47.718;12.912;2022-12-18T19:45:54;2.47;;;1.30;;
41275;SDS011;27010;47.718;12.912;2022-12-18T19:48:57;1.10;;;0.90;;
41275;SDS011;27010;47.718;12.912;2022-12-18T19:52:01;3.97;;;1.60;;